Time;durP1;ratioP1;P1;durP2;ratioP2;P2;SDS_P1;SDS_P2;PMS_P1;PMS_P2;Temp;Humidity;BMP_temperature;BMP_pressure;BME280_temperature;BME280_humidity;BME280_pressure;Samples;Min_cycle;Max_cycle;Signal;HPM_P1;HPM_P2
2022/02/06 00:00:36;;;;;;;5.90;1.80;;;1.20;99.90;;;;;;4943641;28;20036;-51
2022/02/06 00:03:02;;;;;;;1.40;1.30;;;1.20;99.90;;;;;;4948207;28;20056;-48
2022/02/06 00:05:28;;;;;;;1.40;1.30;;;1.20;99.90;;;;;;4949292;28;20024;-50
2022/02/06 00:07:54;;;;;;;2.85;1.33;;;1.20;99.90;;;;;;4950477;28;20034;-50
2022/02/06 00:10:20;;;;;;;2.33;1.63;;;1.10;99.90;;;;;;4946647;28;20086;-49
2022/02/06 00:12:46;;;;;;;3.17;1.30;;;1.20;99.90;;;;;;4953267;28;20035;-49
2022/02/06 00:15:12;;;;;;;2.33;1.73;;;1.10;99.90;;;;;;4947430;28;20488;-49
2022/02/06 00:17:38;;;;;;;1.85;1.27;;;1.20;99.90;;;;;;4948004;28;20035;-48
2022/02/06 00:20:06;;;;;;;1.50;1.40;;;1.20;99.90;;;;;;4942909;28;20766;-49
2022/02/06 00:28:10;;;;;;;2.50;1.45;;;1.30;99.90;;;;;;4952400;28;20051;-49
2022/02/06 00:30:42;;;;;;;1.88;1.30;;;1.30;99.90;;;;;;4950222;28;20023;-48
2022/02/06 00:35:56;;;;;;;2.78;1.65;;;1.40;99.90;;;;;;4951128;28;20392;-49
2022/02/06 00:41:14;;;;;;;1.58;1.40;;;1.40;99.90;;;;;;4949921;28;20066;-49
2022/02/06 00:43:40;;;;;;;2.33;1.55;;;1.40;99.90;;;;;;4951690;28;20039;-47
2022/02/06 00:46:08;;;;;;;4.75;1.50;;;1.40;99.90;;;;;;4948498;28;20038;-47
2022/02/06 00:48:37;;;;;;;4.28;1.85;;;1.50;99.90;;;;;;4947797;28;20063;-47
2022/02/06 00:51:10;;;;;;;1.85;1.63;;;1.50;99.90;;;;;;4944687;28;22094;-47
2022/02/06 00:53:36;;;;;;;1.30;1.13;;;1.50;99.90;;;;;;4951218;28;20034;-49
2022/02/06 00:56:02;;;;;;;1.40;1.30;;;1.50;99.90;;;;;;4952891;28;20042;-48
2022/02/06 00:58:27;;;;;;;2.15;1.45;;;1.50;99.90;;;;;;4949321;28;20122;-47
2022/02/06 01:00:54;;;;;;;3.90;1.65;;;1.50;99.90;;;;;;4948227;28;20047;-47
2022/02/06 01:03:20;;;;;;;1.70;1.42;;;1.50;99.90;;;;;;4953230;28;20086;-47
2022/02/06 01:05:45;;;;;;;1.60;1.10;;;1.60;99.90;;;;;;4952727;28;20039;-48
2022/02/06 01:08:11;;;;;;;3.10;1.45;;;1.50;99.90;;;;;;4948959;28;20114;-48
2022/02/06 01:10:37;;;;;;;0.80;0.80;;;1.60;99.90;;;;;;4946008;28;20617;-49
2022/02/06 01:15:59;;;;;;;3.38;1.58;;;1.50;99.90;;;;;;4949682;28;20041;-48
2022/02/06 01:18:34;;;;;;;2.33;1.45;;;1.50;99.90;;;;;;4949988;28;20046;-48
2022/02/06 01:21:18;;;;;;;4.55;1.42;;;1.50;99.90;;;;;;4947005;28;20047;-48
2022/02/06 01:23:58;;;;;;;3.92;1.48;;;1.50;99.90;;;;;;4946459;28;21093;-48
2022/02/06 01:29:06;;;;;;;1.55;1.45;;;1.50;99.90;;;;;;4949153;28;20032;-48
2022/02/06 01:34:12;;;;;;;1.83;1.50;;;1.40;99.90;;;;;;4949405;28;20059;-50
2022/02/06 01:36:44;;;;;;;1.40;1.30;;;1.40;99.90;;;;;;4948233;28;20027;-48
2022/02/06 01:39:28;;;;;;;1.58;1.48;;;1.40;99.90;;;;;;4951155;28;20074;-47
2022/02/06 01:41:56;;;;;;;1.85;1.17;;;1.40;99.90;;;;;;4947294;28;20035;-48
2022/02/06 01:44:48;;;;;;;1.52;1.42;;;1.40;99.90;;;;;;4949396;28;20039;-47
2022/02/06 02:01:12;;;;;;;1.05;1.05;;;1.30;99.90;;;;;;4944612;28;20098;-49
2022/02/06 02:16:31;;;;;;;2.65;1.67;;;1.40;99.90;;;;;;4947116;28;20050;-48
2022/02/06 02:19:16;;;;;;;1.48;1.45;;;1.40;99.90;;;;;;4946045;28;20055;-48
2022/02/06 02:45:51;;;;;;;6.93;1.88;;;1.40;99.90;;;;;;4946668;28;20028;-49
2022/02/06 02:48:19;;;;;;;2.90;1.30;;;1.40;99.90;;;;;;4951571;28;20035;-48
2022/02/06 02:50:53;;;;;;;1.85;1.75;;;1.40;99.90;;;;;;4950828;28;20455;-49
2022/02/06 02:53:31;;;;;;;3.05;1.40;;;1.40;99.90;;;;;;4942316;28;20027;-49
2022/02/06 02:56:09;;;;;;;2.53;1.35;;;1.50;99.90;;;;;;4944862;28;20027;-49
2022/02/06 03:03:48;;;;;;;2.03;1.45;;;1.40;99.90;;;;;;4945393;28;20041;-49
2022/02/06 03:06:14;;;;;;;1.88;1.08;;;1.50;99.90;;;;;;4947183;28;20031;-49
2022/02/06 03:08:41;;;;;;;2.10;1.48;;;1.50;99.90;;;;;;4948411;28;20035;-49
2022/02/06 03:11:09;;;;;;;4.68;1.40;;;1.50;99.90;;;;;;4950498;28;20067;-50
2022/02/06 03:13:49;;;;;;;1.50;1.40;;;1.50;99.90;;;;;;4950120;28;20035;-48
2022/02/06 03:16:23;;;;;;;2.03;1.73;;;1.50;99.90;;;;;;4949800;28;20291;-51
2022/02/06 03:21:21;;;;;;;4.07;1.50;;;1.50;99.90;;;;;;4944666;28;20392;-49
2022/02/06 03:23:51;;;;;;;1.10;1.10;;;1.60;99.90;;;;;;4948437;28;20035;-50
2022/02/06 03:26:20;;;;;;;1.15;1.10;;;1.60;99.90;;;;;;4955299;28;20653;-48
2022/02/06 03:28:47;;;;;;;2.00;1.52;;;1.60;99.90;;;;;;4952154;28;20035;-49
2022/02/06 03:31:13;;;;;;;2.60;1.65;;;1.60;99.90;;;;;;4952466;28;20040;-49
2022/02/06 03:33:38;;;;;;;2.72;1.63;;;1.70;99.90;;;;;;4947874;28;20092;-49
2022/02/06 03:36:04;;;;;;;1.20;1.20;;;1.70;99.90;;;;;;4955956;28;20027;-49
2022/02/06 03:38:30;;;;;;;5.80;1.50;;;1.70;99.90;;;;;;4954499;28;20027;-49
2022/02/06 03:41:02;;;;;;;1.25;1.15;;;1.70;99.90;;;;;;4952059;28;20035;-48
2022/02/06 03:43:49;;;;;;;4.32;1.48;;;1.70;99.90;;;;;;4952882;28;20039;-49
2022/02/06 03:46:24;;;;;;;3.65;1.27;;;1.80;99.90;;;;;;4950926;28;20054;-49
2022/02/06 03:51:29;;;;;;;1.30;1.20;;;1.80;99.90;;;;;;4950711;28;20039;-50
2022/02/06 03:53:55;;;;;;;1.10;1.10;;;1.80;99.90;;;;;;4954370;28;20043;-49
2022/02/06 03:56:21;;;;;;;2.97;1.40;;;1.90;99.90;;;;;;4954588;28;20503;-49
2022/02/06 03:58:47;;;;;;;5.15;1.55;;;1.90;99.90;;;;;;4947458;28;20042;-50
2022/02/06 04:01:13;;;;;;;4.32;1.40;;;1.90;99.90;;;;;;4954288;28;20043;-49
2022/02/06 04:03:39;;;;;;;1.05;0.98;;;1.90;99.90;;;;;;4951462;28;20098;-49
2022/02/06 04:06:05;;;;;;;3.20;1.30;;;2.00;99.90;;;;;;4955719;28;20437;-48
2022/02/06 04:08:33;;;;;;;3.92;1.20;;;2.00;99.90;;;;;;4950910;28;20069;-48
2022/02/06 04:10:59;;;;;;;;;;;2.00;99.90;;;;;;4948548;28;20046;-49
2022/02/06 04:13:26;;;;;;;1.58;0.90;;;2.10;99.90;;;;;;4949130;28;19918;-48
2022/02/06 04:15:59;;;;;;;3.85;1.00;;;2.00;99.90;;;;;;4950466;28;20047;-48
2022/02/06 04:21:12;;;;;;;1.30;1.20;;;2.10;99.90;;;;;;4938020;28;20150;-48
2022/02/06 04:23:37;;;;;;;0.98;0.98;;;2.10;99.90;;;;;;4951250;28;20118;-49
2022/02/06 04:26:03;;;;;;;3.03;1.35;;;2.20;99.90;;;;;;4952919;28;20031;-48
2022/02/06 04:28:28;;;;;;;1.40;1.38;;;2.20;99.90;;;;;;4950276;28;20105;-48
2022/02/06 04:30:54;;;;;;;0.98;0.98;;;2.20;99.90;;;;;;4951488;28;20118;-49
2022/02/06 04:33:20;;;;;;;1.33;1.17;;;2.30;99.90;;;;;;4952207;28;20166;-47
2022/02/06 04:35:47;;;;;;;2.63;1.13;;;2.30;99.90;;;;;;4954374;28;20031;-49
2022/02/06 05:21:36;;;;;;;1.35;1.25;;;2.50;99.90;;;;;;4948564;28;20117;-49
2022/02/06 05:27:09;;;;;;;3.45;1.17;;;2.50;99.90;;;;;;4948245;28;19917;-48
2022/02/06 05:29:56;;;;;;;5.10;1.65;;;2.50;99.90;;;;;;4947348;28;20031;-48
2022/02/06 05:32:40;;;;;;;3.78;1.85;;;2.60;99.90;;;;;;4949995;28;20102;-48
2022/02/06 05:35:07;;;;;;;2.70;1.10;;;2.60;99.90;;;;;;4946724;28;20034;-48
2022/02/06 05:37:33;;;;;;;2.63;1.10;;;2.60;99.90;;;;;;4948838;28;20046;-48
2022/02/06 05:39:59;;;;;;;1.40;1.30;;;2.60;99.90;;;;;;4951751;28;20396;-49
2022/02/06 05:42:25;;;;;;;2.85;1.35;;;2.60;99.90;;;;;;4949645;28;20054;-48
2022/02/06 05:44:55;;;;;;;1.60;1.15;;;2.60;99.90;;;;;;4946537;28;20034;-48
2022/02/06 05:47:26;;;;;;;1.40;1.20;;;2.70;99.90;;;;;;4949887;28;20527;-48
2022/02/06 05:49:53;;;;;;;6.88;1.40;;;2.60;99.90;;;;;;4944785;28;20050;-49
2022/02/06 05:52:20;;;;;;;2.22;1.23;;;2.60;99.90;;;;;;4948357;28;21220;-49
2022/02/06 05:54:46;;;;;;;2.50;1.20;;;2.60;99.90;;;;;;4946686;28;20090;-49
2022/02/06 05:57:12;;;;;;;2.42;1.00;;;2.60;99.90;;;;;;4948901;28;20578;-49
2022/02/06 05:59:38;;;;;;;2.30;1.30;;;2.60;99.90;;;;;;4949422;28;20031;-49
2022/02/06 06:02:04;;;;;;;4.03;1.13;;;2.60;99.90;;;;;;4945033;28;20039;-49
2022/02/06 06:04:30;;;;;;;1.20;1.20;;;2.60;99.90;;;;;;4945456;28;20035;-49
2022/02/06 06:06:55;;;;;;;6.68;2.05;;;2.60;99.90;;;;;;4948010;28;20513;-48
2022/02/06 06:09:21;;;;;;;1.60;1.42;;;2.60;99.90;;;;;;4948917;28;20057;-48
2022/02/06 06:11:47;;;;;;;3.42;1.15;;;2.70;99.90;;;;;;4946254;28;20652;-48
2022/02/06 06:14:13;;;;;;;1.08;1.08;;;2.70;99.90;;;;;;4947878;28;20404;-48
2022/02/06 06:16:38;;;;;;;1.38;1.20;;;2.70;99.90;;;;;;4947260;28;20031;-48
2022/02/06 06:19:06;;;;;;;2.10;1.85;;;2.70;99.90;;;;;;4949195;28;20019;-49
2022/02/06 06:21:44;;;;;;;1.50;1.40;;;2.70;99.90;;;;;;4949388;28;20035;-47
2022/02/06 06:24:15;;;;;;;1.10;1.10;;;2.70;99.90;;;;;;4943628;28;20039;-48
2022/02/06 06:26:40;;;;;;;1.30;1.20;;;2.80;99.90;;;;;;4948431;28;20290;-48
2022/02/06 06:29:06;;;;;;;1.10;1.10;;;2.80;99.90;;;;;;4946284;28;20078;-48
2022/02/06 06:31:32;;;;;;;2.13;1.20;;;2.80;99.90;;;;;;4949482;28;20043;-48
2022/02/06 06:33:57;;;;;;;1.38;1.17;;;2.80;99.90;;;;;;4946309;28;20043;-49
2022/02/06 06:36:23;;;;;;;1.75;1.65;;;2.80;99.90;;;;;;4942688;28;20038;-47
2022/02/06 06:38:51;;;;;;;2.00;1.30;;;2.80;99.90;;;;;;4947939;28;20034;-49
2022/02/06 06:41:17;;;;;;;1.30;1.30;;;2.80;99.90;;;;;;4948797;28;20035;-49
2022/02/06 06:43:43;;;;;;;4.10;1.30;;;2.80;99.90;;;;;;4947125;28;20038;-48
2022/02/06 06:46:09;;;;;;;1.00;1.00;;;2.80;99.90;;;;;;4947620;28;20114;-49
2022/02/06 06:48:35;;;;;;;2.22;1.40;;;2.80;99.90;;;;;;4945822;28;20142;-50
2022/02/06 06:51:00;;;;;;;4.90;1.48;;;2.80;99.90;;;;;;4946391;28;20035;-49
2022/02/06 06:53:28;;;;;;;3.08;1.25;;;2.80;99.90;;;;;;4948525;28;20126;-50
2022/02/06 06:55:59;;;;;;;3.83;1.35;;;2.80;99.90;;;;;;4947031;28;20105;-49
2022/02/06 06:58:28;;;;;;;1.63;1.30;;;2.80;99.90;;;;;;4952428;28;20409;-49
2022/02/06 07:03:43;;;;;;;1.52;1.20;;;2.90;99.90;;;;;;4935975;28;20039;-49
2022/02/06 07:06:08;;;;;;;1.42;1.25;;;2.90;99.90;;;;;;4953240;28;20038;-49
2022/02/06 07:08:34;;;;;;;5.10;1.55;;;2.90;99.90;;;;;;4951183;28;20035;-49
2022/02/06 07:10:59;;;;;;;3.58;1.55;;;2.90;99.90;;;;;;4950641;28;20089;-47
2022/02/06 07:13:25;;;;;;;2.25;1.42;;;2.90;99.90;;;;;;4950986;28;20066;-48
2022/02/06 07:15:53;;;;;;;4.32;1.50;;;2.90;99.90;;;;;;4950019;28;20027;-48
2022/02/06 07:18:19;;;;;;;1.90;1.30;;;2.90;99.90;;;;;;4949449;28;20043;-49
2022/02/06 07:20:45;;;;;;;1.38;1.27;;;2.90;99.90;;;;;;4951646;28;20030;-50
2022/02/06 07:23:13;;;;;;;5.40;1.50;;;2.90;99.90;;;;;;4952363;28;20106;-49
2022/02/06 07:25:41;;;;;;;2.80;1.40;;;2.90;99.90;;;;;;4949937;28;20114;-48
2022/02/06 07:28:14;;;;;;;1.63;1.50;;;2.90;99.90;;;;;;4956661;28;21986;-48
2022/02/06 07:30:40;;;;;;;3.38;1.27;;;2.90;99.90;;;;;;4947856;28;20458;-48
2022/02/06 07:33:06;;;;;;;1.05;0.98;;;2.90;99.90;;;;;;4953485;28;20035;-48
2022/02/06 07:35:32;;;;;;;1.23;0.90;;;3.00;99.90;;;;;;4951755;28;20028;-48
2022/02/06 07:37:58;;;;;;;3.53;1.20;;;3.00;99.90;;;;;;4948988;28;20032;-49
2022/02/06 07:40:24;;;;;;;1.90;1.20;;;3.10;99.90;;;;;;4950411;28;20060;-49
2022/02/06 07:42:51;;;;;;;2.42;1.45;;;3.00;99.90;;;;;;4952798;28;20027;-49
2022/02/06 07:45:17;;;;;;;2.75;1.13;;;3.10;99.90;;;;;;4948320;28;20508;-49
2022/02/06 07:47:45;;;;;;;1.10;1.10;;;3.20;99.90;;;;;;4945295;28;20584;-49
2022/02/06 07:50:13;;;;;;;1.30;1.20;;;3.30;99.90;;;;;;4951682;28;20054;-49
2022/02/06 07:52:38;;;;;;;4.32;1.55;;;3.30;99.90;;;;;;4947038;28;20031;-49
2022/02/06 07:55:07;;;;;;;1.30;1.05;;;3.30;99.90;;;;;;4942244;28;20082;-48
2022/02/06 07:57:33;;;;;;;2.75;1.10;;;3.40;99.90;;;;;;4942425;28;20039;-48
2022/02/06 07:59:59;;;;;;;1.65;1.40;;;3.30;99.90;;;;;;4949963;28;20753;-48
2022/02/06 08:02:25;;;;;;;1.20;0.98;;;3.30;99.90;;;;;;4945269;28;20102;-48
2022/02/06 08:04:51;;;;;;;1.25;0.98;;;3.40;99.90;;;;;;4945418;28;20042;-48
2022/02/06 08:07:17;;;;;;;4.13;1.23;;;3.40;99.90;;;;;;4947903;28;20038;-48
2022/02/06 08:09:53;;;;;;;1.23;1.15;;;3.40;99.90;;;;;;4950392;28;20039;-48
2022/02/06 08:12:34;;;;;;;3.75;1.38;;;3.40;99.90;;;;;;4947539;28;20524;-48
2022/02/06 08:15:05;;;;;;;1.60;1.10;;;3.40;99.90;;;;;;4948173;28;20035;-48
2022/02/06 08:17:35;;;;;;;2.78;1.15;;;3.50;99.90;;;;;;4947844;28;20108;-48
2022/02/06 08:20:03;;;;;;;1.30;1.00;;;3.50;99.90;;;;;;4948814;28;20034;-49
2022/02/06 08:22:29;;;;;;;1.65;1.13;;;3.50;99.90;;;;;;4946927;28;20035;-48
2022/02/06 08:24:56;;;;;;;1.45;1.02;;;3.50;99.90;;;;;;4946471;28;20054;-48
2022/02/06 08:27:24;;;;;;;1.02;0.90;;;3.50;99.90;;;;;;4946488;28;20062;-50
2022/02/06 08:29:50;;;;;;;2.15;1.65;;;3.50;99.90;;;;;;4949123;28;20906;-48
2022/02/06 08:32:18;;;;;;;1.00;1.00;;;3.50;99.90;;;;;;4948665;28;20146;-49
2022/02/06 08:34:44;;;;;;;2.70;1.15;;;3.60;99.90;;;;;;4947232;28;20027;-49
2022/02/06 08:37:10;;;;;;;4.30;1.38;;;3.60;99.90;;;;;;4947899;28;20054;-48
2022/02/06 08:39:37;;;;;;;5.10;1.40;;;3.60;99.90;;;;;;4942736;28;20031;-49
2022/02/06 08:42:08;;;;;;;1.20;1.00;;;3.70;99.90;;;;;;4946084;28;20031;-49
2022/02/06 08:44:39;;;;;;;3.40;1.38;;;3.70;99.90;;;;;;4946710;28;20089;-48
2022/02/06 08:47:06;;;;;;;1.55;1.08;;;3.70;99.90;;;;;;4947301;28;20502;-48
2022/02/06 08:49:32;;;;;;;2.58;1.20;;;3.80;99.90;;;;;;4946157;28;20456;-48
2022/02/06 08:51:57;;;;;;;1.17;0.98;;;3.80;99.90;;;;;;4941174;28;20531;-48
2022/02/06 08:54:28;;;;;;;2.50;1.08;;;3.80;99.90;;;;;;4946621;28;20035;-49
2022/02/06 08:56:59;;;;;;;4.32;1.60;;;3.80;99.90;;;;;;4929299;28;20408;-49
2022/02/06 08:59:25;;;;;;;1.73;1.00;;;3.90;99.90;;;;;;4944310;28;20039;-50
2022/02/06 09:01:52;;;;;;;1.08;0.80;;;3.90;99.90;;;;;;4944181;28;20097;-49
2022/02/06 09:04:18;;;;;;;1.05;1.00;;;3.90;99.90;;;;;;4946638;28;20109;-48
2022/02/06 09:06:43;;;;;;;1.52;1.13;;;4.00;99.90;;;;;;4945465;28;20118;-48
2022/02/06 09:09:11;;;;;;;2.35;1.00;;;4.00;99.90;;;;;;4947873;28;20043;-48
2022/02/06 09:11:36;;;;;;;2.78;1.00;;;4.00;99.90;;;;;;4949062;28;20113;-48
2022/02/06 09:14:02;;;;;;;1.08;0.93;;;4.10;99.90;;;;;;4949629;28;20111;-49
2022/02/06 09:16:28;;;;;;;2.15;1.02;;;4.20;99.90;;;;;;4942964;28;20023;-48
2022/02/06 09:18:54;;;;;;;1.88;1.27;;;4.20;99.90;;;;;;4949026;28;20038;-48
2022/02/06 09:21:21;;;;;;;1.65;1.55;;;4.20;99.90;;;;;;4941133;28;20023;-48
2022/02/06 09:23:47;;;;;;;2.95;1.13;;;4.20;99.90;;;;;;4941849;28;20042;-48
2022/02/06 09:26:14;;;;;;;0.80;0.77;;;4.20;99.90;;;;;;4939657;28;20563;-48
2022/02/06 09:28:40;;;;;;;5.05;1.38;;;4.30;99.90;;;;;;4943762;28;20062;-48
2022/02/06 09:31:06;;;;;;;1.50;1.30;;;4.30;99.90;;;;;;4943049;28;20125;-48
2022/02/06 09:35:57;;;;;;;1.38;1.27;;;4.40;99.90;;;;;;4943339;28;20035;-48
2022/02/06 09:38:23;;;;;;;3.55;1.30;;;4.50;99.90;;;;;;4941916;28;20078;-50
2022/02/06 09:40:51;;;;;;;2.08;1.05;;;4.50;99.90;;;;;;4941641;28;20027;-49
2022/02/06 09:43:17;;;;;;;2.08;1.23;;;4.60;99.90;;;;;;4943550;28;20039;-50
2022/02/06 09:45:47;;;;;;;2.13;0.77;;;4.70;99.90;;;;;;4918690;28;20039;-48
2022/02/06 09:48:14;;;;;;;1.52;0.85;;;4.70;99.90;;;;;;4946244;28;20063;-48
2022/02/06 09:50:44;;;;;;;3.05;1.30;;;4.80;99.90;;;;;;4940082;28;20536;-50
2022/02/06 09:53:10;;;;;;;1.67;0.93;;;4.90;99.90;;;;;;4942927;28;20480;-49
2022/02/06 09:55:38;;;;;;;3.13;1.95;;;5.00;99.90;;;;;;4944455;28;20035;-49
2022/02/06 09:58:28;;;;;;;2.55;1.00;;;5.10;99.90;;;;;;4945608;28;20042;-50
2022/02/06 10:00:54;;;;;;;1.75;1.15;;;5.20;99.90;;;;;;4946689;28;20035;-49
2022/02/06 10:03:21;;;;;;;1.02;0.93;;;5.10;99.90;;;;;;4943254;28;20050;-49
2022/02/06 10:05:50;;;;;;;2.75;1.20;;;5.10;99.90;;;;;;4944587;28;20448;-48
2022/02/06 10:08:16;;;;;;;;;;;5.10;99.90;;;;;;4946001;28;20031;-49
2022/02/06 10:11:12;;;;;;;1.00;1.00;;;5.20;99.90;;;;;;4939763;28;19910;-49
2022/02/06 10:13:39;;;;;;;3.63;1.10;;;5.20;99.90;;;;;;4939920;28;20178;-49
2022/02/06 10:16:13;;;;;;;2.13;0.88;;;5.20;99.90;;;;;;4941375;28;20110;-51
2022/02/06 10:18:40;;;;;;;3.88;1.00;;;5.10;99.90;;;;;;4931773;28;20966;-48
2022/02/06 10:21:08;;;;;;;2.03;0.98;;;5.10;99.90;;;;;;4943266;28;20184;-48
2022/02/06 10:23:43;;;;;;;3.85;1.10;;;5.10;99.90;;;;;;4941490;28;20028;-49
2022/02/06 10:26:31;;;;;;;2.17;0.80;;;5.10;99.90;;;;;;4942397;28;21738;-48
2022/02/06 10:29:25;;;;;;;2.58;1.23;;;5.10;99.90;;;;;;4931835;28;20061;-48
2022/02/06 10:31:59;;;;;;;1.85;1.35;;;5.20;99.90;;;;;;4941527;28;20488;-49
2022/02/06 10:34:26;;;;;;;2.35;1.20;;;5.30;99.90;;;;;;4944690;28;20035;-48
2022/02/06 10:37:23;;;;;;;3.40;1.38;;;5.30;99.90;;;;;;4944176;28;20031;-50
2022/02/06 10:40:05;;;;;;;0.93;0.90;;;5.30;99.90;;;;;;4946382;28;20054;-48
2022/02/06 10:42:36;;;;;;;1.65;1.20;;;5.30;99.90;;;;;;4941558;28;20031;-48
2022/02/06 10:45:21;;;;;;;2.70;1.00;;;5.30;99.90;;;;;;4942806;28;20032;-49
2022/02/06 10:47:50;;;;;;;1.98;1.17;;;5.30;99.90;;;;;;4947074;28;20035;-49
2022/02/06 10:50:23;;;;;;;1.00;1.00;;;5.40;99.90;;;;;;4945196;28;20051;-49
2022/02/06 10:52:48;;;;;;;1.23;0.70;;;5.40;99.90;;;;;;4947076;28;20614;-49
2022/02/06 10:55:16;;;;;;;0.93;0.73;;;5.40;99.90;;;;;;4947442;28;20031;-49
2022/02/06 10:58:02;;;;;;;1.63;1.02;;;5.50;99.90;;;;;;4941105;28;20023;-49
2022/02/06 11:00:30;;;;;;;3.17;1.20;;;5.40;99.90;;;;;;4944180;28;20027;-49
2022/02/06 11:03:03;;;;;;;1.30;1.02;;;5.40;99.90;;;;;;4942893;28;20030;-49
2022/02/06 11:05:47;;;;;;;0.88;0.88;;;5.50;99.90;;;;;;4950387;28;20102;-50
2022/02/06 11:08:24;;;;;;;1.10;0.93;;;5.50;99.90;;;;;;4945358;28;20035;-48
2022/02/06 11:11:07;;;;;;;2.10;1.15;;;5.50;99.90;;;;;;4946361;28;20049;-49
2022/02/06 11:13:33;;;;;;;0.98;0.98;;;5.50;99.90;;;;;;4948565;28;20039;-49
2022/02/06 11:16:04;;;;;;;5.55;1.55;;;5.50;99.90;;;;;;4946758;28;20053;-48
2022/02/06 11:18:39;;;;;;;2.97;1.10;;;5.50;99.90;;;;;;4947614;28;20392;-48
2022/02/06 11:21:09;;;;;;;3.28;1.23;;;5.50;99.90;;;;;;4947291;28;21343;-49
2022/02/06 11:23:38;;;;;;;0.82;0.82;;;5.40;99.90;;;;;;4949222;28;20485;-49
2022/02/06 11:26:05;;;;;;;;;;;5.50;99.90;;;;;;4942757;28;20070;-48
2022/02/06 11:28:30;;;;;;;0.98;0.70;;;5.50;99.90;;;;;;4946725;28;19985;-49
2022/02/06 11:30:56;;;;;;;0.70;0.70;;;5.50;99.90;;;;;;4945908;28;20122;-48
2022/02/06 11:33:23;;;;;;;3.17;1.10;;;5.50;99.90;;;;;;4951356;28;20022;-48
2022/02/06 11:35:56;;;;;;;0.90;0.90;;;5.60;99.90;;;;;;4947450;28;20058;-49
2022/02/06 11:44:35;;;;;;;0.85;0.85;;;5.60;99.90;;;;;;4945393;28;20038;-49
2022/02/06 11:47:19;;;;;;;1.63;1.00;;;5.60;99.90;;;;;;4945659;28;20034;-50
2022/02/06 11:49:48;;;;;;;1.02;1.00;;;5.60;99.90;;;;;;4944462;28;20053;-48
2022/02/06 11:52:14;;;;;;;1.10;1.05;;;5.60;99.90;;;;;;4947708;28;20062;-48
2022/02/06 11:54:52;;;;;;;0.90;0.90;;;5.60;99.90;;;;;;4943368;28;20027;-49
2022/02/06 11:57:25;;;;;;;2.40;1.25;;;5.50;99.90;;;;;;4942447;28;20034;-49
2022/02/06 12:00:14;;;;;;;3.00;0.95;;;5.50;99.90;;;;;;4942447;28;20027;-49
2022/02/06 12:02:45;;;;;;;2.08;1.15;;;5.50;99.90;;;;;;4922058;29;20586;-48
2022/02/06 12:05:15;;;;;;;0.95;0.95;;;5.50;99.90;;;;;;4927905;29;20027;-49
2022/02/06 12:07:53;;;;;;;3.85;1.30;;;5.50;99.90;;;;;;4921821;29;20111;-49
2022/02/06 12:10:34;;;;;;;2.33;1.00;;;5.50;99.90;;;;;;4922631;29;20417;-48
2022/02/06 12:13:24;;;;;;;1.00;1.00;;;5.50;99.90;;;;;;4924181;29;20036;-48
2022/02/06 12:16:00;;;;;;;2.17;1.00;;;5.50;99.90;;;;;;4919202;29;20159;-49
2022/02/06 12:18:31;;;;;;;1.17;0.82;;;5.50;99.90;;;;;;4927040;29;20031;-49
2022/02/06 12:21:08;;;;;;;1.95;1.20;;;5.60;99.90;;;;;;4928098;29;20031;-49
2022/02/06 12:23:43;;;;;;;1.95;1.10;;;5.60;99.90;;;;;;4928213;29;20087;-49
2022/02/06 12:26:27;;;;;;;2.45;1.10;;;5.50;99.90;;;;;;4928874;29;20034;-49
2022/02/06 12:29:26;;;;;;;2.38;1.00;;;5.50;99.90;;;;;;4922383;29;20038;-49
2022/02/06 12:32:00;;;;;;;0.88;0.88;;;5.50;99.90;;;;;;4931703;28;20043;-49
2022/02/06 12:37:28;;;;;;;2.17;0.90;;;5.50;99.90;;;;;;4944306;28;20082;-49
2022/02/06 12:39:59;;;;;;;1.00;0.93;;;5.50;99.90;;;;;;4944713;28;20062;-48
2022/02/06 12:42:45;;;;;;;1.73;1.10;;;5.60;99.90;;;;;;4942760;28;20111;-49
2022/02/06 12:45:22;;;;;;;1.15;0.82;;;5.60;99.90;;;;;;4944698;28;20493;-49
2022/02/06 12:47:56;;;;;;;1.45;1.20;;;5.50;99.90;;;;;;4944552;28;20071;-49
2022/02/06 12:50:23;;;;;;;3.33;0.80;;;5.50;99.90;;;;;;4945234;28;20039;-49
2022/02/06 12:52:50;;;;;;;1.35;1.10;;;5.60;99.90;;;;;;4949644;28;20043;-49
2022/02/06 12:55:17;;;;;;;2.20;0.90;;;5.50;99.90;;;;;;4942851;28;20673;-49
2022/02/06 12:57:48;;;;;;;2.05;1.05;;;5.50;99.90;;;;;;4945358;28;20110;-49
2022/02/06 13:00:50;;;;;;;1.30;1.00;;;5.60;99.90;;;;;;4940867;28;20572;-49
2022/02/06 13:03:20;;;;;;;2.38;1.00;;;5.50;99.90;;;;;;4943568;28;20034;-50
2022/02/06 13:05:51;;;;;;;4.57;1.75;;;5.60;99.90;;;;;;4949139;28;20050;-48
2022/02/06 13:08:17;;;;;;;1.00;1.00;;;5.50;99.90;;;;;;4943877;28;20146;-48
2022/02/06 13:11:05;;;;;;;4.95;1.75;;;5.50;99.90;;;;;;4944805;28;20046;-49
2022/02/06 13:13:53;;;;;;;4.22;2.40;;;5.50;99.90;;;;;;4975808;28;20037;-50
2022/02/06 13:19:49;;;;;;;3.75;2.17;;;5.60;99.90;;;;;;4941280;28;20272;-50
2022/02/06 13:29:55;;;;;;;4.90;2.90;;;5.60;99.90;;;;;;4945084;28;20597;-48
2022/02/06 13:32:58;;;;;;;9.25;2.30;;;5.60;99.90;;;;;;4944061;28;20047;-50
2022/02/06 13:35:35;;;;;;;8.38;2.72;;;5.60;99.90;;;;;;4944902;28;20056;-48
2022/02/06 13:38:07;;;;;;;1.52;1.40;;;5.60;99.90;;;;;;4947532;28;20027;-48
2022/02/06 13:40:39;;;;;;;0.93;0.93;;;5.70;99.90;;;;;;4943784;28;20046;-48
2022/02/06 13:43:14;;;;;;;5.85;1.50;;;5.60;99.90;;;;;;4944950;28;20561;-48
2022/02/06 13:45:42;;;;;;;1.42;1.30;;;5.70;99.90;;;;;;4944219;28;20389;-48
2022/02/06 13:48:14;;;;;;;2.22;1.60;;;5.60;99.90;;;;;;4941081;28;20033;-48
2022/02/06 13:50:51;;;;;;;1.30;1.20;;;5.60;99.90;;;;;;4948839;28;20130;-49
2022/02/06 13:53:20;;;;;;;1.65;1.38;;;5.60;99.90;;;;;;4948928;28;20042;-48
2022/02/06 13:55:49;;;;;;;1.10;1.00;;;5.60;99.90;;;;;;4944860;28;20442;-48
2022/02/06 13:58:17;;;;;;;1.48;1.00;;;5.60;99.90;;;;;;4947871;28;20102;-48
2022/02/06 14:01:04;;;;;;;2.07;1.43;;;5.70;99.90;;;;;;4944072;28;20037;-48
2022/02/06 14:03:59;;;;;;;2.90;0.93;;;5.70;99.90;;;;;;4943127;28;20037;-50
2022/02/06 14:06:47;;;;;;;2.33;1.40;;;5.70;99.90;;;;;;4938584;28;20598;-47
2022/02/06 14:09:25;;;;;;;0.80;0.63;;;5.80;99.90;;;;;;4936436;28;20563;-48
2022/02/06 14:11:58;;;;;;;1.02;1.02;;;5.80;99.90;;;;;;4942985;28;20090;-47
2022/02/06 14:14:25;;;;;;;0.90;0.90;;;5.80;99.90;;;;;;4941651;28;20069;-48
2022/02/06 14:16:57;;;;;;;0.90;0.90;;;5.80;99.90;;;;;;4946343;28;20385;-47
2022/02/06 14:19:35;;;;;;;1.90;0.98;;;5.80;99.90;;;;;;4941007;28;20485;-48
2022/02/06 14:22:02;;;;;;;6.05;1.05;;;5.80;99.90;;;;;;4943018;28;20114;-48
2022/02/06 14:24:28;;;;;;;1.13;1.02;;;5.80;99.90;;;;;;4942322;28;20517;-48
2022/02/06 14:27:03;;;;;;;1.55;0.90;;;5.90;99.90;;;;;;4942671;28;20058;-48
2022/02/06 14:29:29;;;;;;;1.75;1.23;;;5.90;99.90;;;;;;4944383;28;20043;-48
2022/02/06 14:32:08;;;;;;;1.45;0.98;;;5.90;99.90;;;;;;4961352;28;20039;-48
2022/02/06 14:34:34;;;;;;;0.80;0.80;;;5.90;99.90;;;;;;4945173;28;20036;-48
2022/02/06 14:37:09;;;;;;;1.75;1.00;;;5.90;99.90;;;;;;4944792;28;20027;-48
2022/02/06 14:39:38;;;;;;;2.92;1.35;;;5.90;99.90;;;;;;4941003;28;20507;-49
2022/02/06 14:42:17;;;;;;;1.95;1.15;;;6.00;99.90;;;;;;4935821;28;20037;-48
2022/02/06 14:44:43;;;;;;;2.33;1.02;;;6.00;99.90;;;;;;4936458;28;20043;-48
2022/02/06 14:47:08;;;;;;;0.95;0.90;;;6.00;99.90;;;;;;4938675;28;20071;-48
2022/02/06 14:49:34;;;;;;;1.13;1.08;;;6.00;99.90;;;;;;4937201;28;20043;-49
2022/02/06 14:52:02;;;;;;;1.20;0.73;;;6.10;99.90;;;;;;4943074;28;20035;-48
2022/02/06 14:54:32;;;;;;;1.38;0.93;;;6.00;99.90;;;;;;4941585;28;20168;-48
2022/02/06 14:56:58;;;;;;;1.20;1.10;;;6.00;99.90;;;;;;4941647;28;20038;-48
2022/02/06 14:59:23;;;;;;;0.93;0.85;;;6.10;99.90;;;;;;4938378;28;20039;-48
2022/02/06 15:01:52;;;;;;;1.30;1.20;;;6.10;99.90;;;;;;4937802;28;20484;-49
2022/02/06 15:04:18;;;;;;;1.63;1.10;;;6.10;99.90;;;;;;4942935;28;20042;-49
2022/02/06 15:06:44;;;;;;;2.38;1.08;;;6.10;99.90;;;;;;4944593;28;20032;-48
2022/02/06 15:09:10;;;;;;;0.70;0.70;;;6.10;99.90;;;;;;4945716;28;20555;-48
2022/02/06 15:11:35;;;;;;;3.08;0.98;;;6.10;99.90;;;;;;4943010;28;20023;-48
2022/02/06 15:14:01;;;;;;;0.90;0.90;;;6.10;99.90;;;;;;4937824;28;20542;-48
2022/02/06 15:16:30;;;;;;;1.55;1.27;;;6.10;99.90;;;;;;4942908;28;20374;-48
2022/02/06 15:19:11;;;;;;;5.05;2.55;;;6.10;99.90;;;;;;4943027;28;20476;-48
2022/02/06 15:21:37;;;;;;;1.27;0.77;;;6.10;99.90;;;;;;4946784;28;20043;-48
2022/02/06 15:24:03;;;;;;;1.73;0.90;;;6.10;99.90;;;;;;4945104;28;20042;-48
2022/02/06 15:26:28;;;;;;;2.10;1.02;;;6.10;99.90;;;;;;4946475;28;20035;-50
2022/02/06 15:28:54;;;;;;;1.52;1.42;;;6.10;99.90;;;;;;4944141;28;20348;-48
2022/02/06 15:31:20;;;;;;;0.77;0.75;;;6.10;99.90;;;;;;4947262;28;20039;-49
2022/02/06 15:33:45;;;;;;;0.80;0.80;;;6.20;99.90;;;;;;4944264;28;20062;-49
2022/02/06 15:36:11;;;;;;;0.60;0.60;;;6.20;99.90;;;;;;4944663;28;20027;-49
2022/02/06 15:38:38;;;;;;;0.80;0.80;;;6.20;99.90;;;;;;4945168;28;20090;-49
2022/02/06 15:41:04;;;;;;;0.80;0.80;;;6.20;99.90;;;;;;4948557;28;20041;-51
2022/02/06 15:43:30;;;;;;;2.38;0.80;;;6.20;99.90;;;;;;4950804;28;20039;-49
2022/02/06 15:45:56;;;;;;;1.50;1.40;;;6.20;99.90;;;;;;4948742;28;20463;-49
2022/02/06 15:48:22;;;;;;;0.88;0.85;;;6.20;99.90;;;;;;4947043;28;20043;-50